Terminal Aerodrome Forecast
Issued by NWS

Current Version | Previous Version | Graphics & Text | Print | Product List | Glossary On
Versions: 1 2 3 4 5 6 7 8 9 10 11 12 13 14 15 16 17 18 19 20 21 22
000
FTUS41 KPBZ 241120
TAFHLG
TAF
KHLG 241120Z 2412/2512 10012KT 6SM -RA OVC060
     FM241500 11014G22KT 5SM -RA OVC035
     FM250000 09013KT P6SM VCSH OVC030
     FM250300 07009KT P6SM VCSH OVC015
     FM250900 02004KT P6SM VCSH OVC008=

USA.gov is the U.S. government's official web portal to all federal, state and local government web resources and services.